Time;durP1;ratioP1;P1;durP2;ratioP2;P2;SDS_P1;SDS_P2;PMS_P1;PMS_P2;Temp;Humidity;BMP_temperature;BMP_pressure;BME280_temperature;BME280_humidity;BME280_pressure;Samples;Min_cycle;Max_cycle;Signal;HPM_P1;HPM_P2
2022/12/18 00:02:07;;;;;;;50.63;22.10;;;-6.60;99.90;;;;;;4693952;28;10000787;-86
2022/12/18 00:04:32;;;;;;;60.83;21.50;;;-6.60;99.90;;;;;;5053796;28;20028;-85
2022/12/18 00:06:58;;;;;;;49.13;21.30;;;-6.70;99.90;;;;;;5052451;28;20036;-86
2022/12/18 00:09:24;;;;;;;49.90;21.70;;;-6.70;99.90;;;;;;5050194;28;20534;-86
2022/12/18 00:11:49;;;;;;;60.43;22.13;;;-6.70;99.90;;;;;;5051833;28;20260;-86
2022/12/18 00:14:15;;;;;;;53.90;22.57;;;-6.70;99.90;;;;;;5049197;28;20093;-85
2022/12/18 00:16:44;;;;;;;53.77;22.10;;;-6.70;99.90;;;;;;5051322;28;20052;-86
2022/12/18 00:19:11;;;;;;;51.37;21.93;;;-6.70;99.90;;;;;;5048646;28;20487;-86
2022/12/18 00:21:37;;;;;;;55.50;23.17;;;-6.70;99.90;;;;;;5051035;28;20067;-85
2022/12/18 00:24:02;;;;;;;66.77;23.23;;;-6.80;99.90;;;;;;5051860;28;20059;-86
2022/12/18 00:26:31;;;;;;;60.13;23.70;;;-6.80;99.90;;;;;;5052284;28;20120;-85
2022/12/18 00:29:03;;;;;;;51.63;21.50;;;-6.80;99.90;;;;;;5058830;28;20077;-85
2022/12/18 00:31:28;;;;;;;52.33;20.93;;;-6.80;99.90;;;;;;5052256;28;20684;-86
2022/12/18 00:33:55;;;;;;;51.83;20.90;;;-6.80;99.90;;;;;;5047874;28;20027;-86
2022/12/18 00:36:24;;;;;;;50.00;21.13;;;-6.80;99.90;;;;;;5047015;28;20024;-84
2022/12/18 00:38:50;;;;;;;55.73;22.83;;;-6.90;99.90;;;;;;5049797;28;20023;-85
2022/12/18 00:42:55;;;;;;;55.00;22.10;;;-7.00;99.90;;;;;;5050854;28;20035;-84
2022/12/18 00:44:03;;;;;;;51.83;20.80;;;-7.10;99.90;;;;;;5044951;28;20024;-85
2022/12/18 00:46:30;;;;;;;51.53;21.70;;;-7.10;99.90;;;;;;5063118;28;20020;-85
2022/12/18 00:48:55;;;;;;;49.17;20.70;;;-7.10;99.90;;;;;;5065674;28;20401;-86
2022/12/18 00:51:22;;;;;;;58.97;23.53;;;-7.10;99.90;;;;;;5065058;28;20093;-85
2022/12/18 00:53:48;;;;;;;54.90;23.23;;;-7.10;99.90;;;;;;5061970;28;20039;-85
2022/12/18 00:56:13;;;;;;;60.83;23.07;;;-7.10;99.90;;;;;;5061636;28;20045;-85
2022/12/18 00:58:39;;;;;;;55.23;23.37;;;-7.10;99.90;;;;;;5066701;28;20016;-85
2022/12/18 01:01:05;;;;;;;64.80;24.10;;;-7.10;99.90;;;;;;5071224;28;20032;-84
2022/12/18 01:03:31;;;;;;;61.57;22.43;;;-7.00;99.90;;;;;;5067179;28;20143;-84
2022/12/18 01:05:57;;;;;;;58.60;23.83;;;-7.00;99.90;;;;;;5072792;28;20085;-85
2022/12/18 01:08:23;;;;;;;51.13;22.03;;;-7.00;99.90;;;;;;5072974;28;20050;-84
2022/12/18 01:10:48;;;;;;;51.43;21.77;;;-7.00;99.90;;;;;;5072631;28;20108;-84
2022/12/18 01:13:14;;;;;;;101.03;21.30;;;-7.00;99.90;;;;;;5068515;28;20039;-84
2022/12/18 01:15:40;;;;;;;51.23;20.83;;;-7.10;99.90;;;;;;5067959;28;20068;-84
2022/12/18 01:18:06;;;;;;;55.57;22.47;;;-7.10;99.90;;;;;;5065435;28;20055;-84
2022/12/18 01:20:32;;;;;;;47.63;20.87;;;-7.10;99.90;;;;;;5070203;28;20028;-84
2022/12/18 01:22:58;;;;;;;47.27;20.03;;;-7.10;99.90;;;;;;5067873;28;20020;-85
2022/12/18 01:25:24;;;;;;;48.23;21.73;;;-7.10;99.90;;;;;;5069350;28;20085;-84
2022/12/18 01:27:49;;;;;;;53.70;23.17;;;-7.00;99.90;;;;;;5072411;28;20028;-83
2022/12/18 01:30:15;;;;;;;51.83;21.87;;;-7.00;99.90;;;;;;5071652;28;20635;-84
2022/12/18 01:32:41;;;;;;;54.97;21.43;;;-7.00;99.90;;;;;;5068469;28;20122;-84
2022/12/18 01:35:07;;;;;;;46.53;20.10;;;-6.90;99.90;;;;;;5084236;28;20168;-84
2022/12/18 01:37:33;;;;;;;44.20;20.53;;;-7.00;99.90;;;;;;5087272;28;20119;-84
2022/12/18 01:39:58;;;;;;;48.60;20.70;;;-7.00;99.90;;;;;;5085869;28;20173;-84
2022/12/18 01:42:25;;;;;;;58.07;20.50;;;-7.00;99.90;;;;;;5085980;28;20549;-84
2022/12/18 01:45:21;;;;;;;48.00;20.40;;;-7.30;99.90;;;;;;5084334;28;20082;-84
2022/12/18 01:47:52;;;;;;;50.23;20.00;;;-7.20;99.90;;;;;;5083280;28;20072;-85
2022/12/18 01:50:35;;;;;;;61.53;21.27;;;-7.20;99.90;;;;;;5088220;28;20555;-85
2022/12/18 01:53:04;;;;;;;58.93;20.57;;;-7.20;99.90;;;;;;5085587;28;20486;-85
2022/12/18 01:55:34;;;;;;;51.93;19.37;;;-7.30;99.90;;;;;;5087006;28;20035;-85
2022/12/18 01:58:00;;;;;;;49.70;20.63;;;-7.30;99.90;;;;;;5085590;28;20494;-85
2022/12/18 02:00:27;;;;;;;57.63;20.37;;;-7.30;99.90;;;;;;5089762;28;20075;-85
2022/12/18 02:02:53;;;;;;;46.73;21.07;;;-7.30;99.90;;;;;;5084956;28;20040;-85
2022/12/18 02:05:41;;;;;;;47.37;21.60;;;-7.30;99.90;;;;;;5085968;28;20611;-85
2022/12/18 02:08:17;;;;;;;47.47;20.80;;;-7.20;99.90;;;;;;5084546;28;20068;-85
2022/12/18 02:10:51;;;;;;;45.97;19.93;;;-7.20;99.90;;;;;;5083344;28;20028;-85
2022/12/18 02:13:39;;;;;;;51.63;21.87;;;-7.20;99.90;;;;;;5076516;28;20111;-85
2022/12/18 02:16:36;;;;;;;46.70;20.50;;;-7.10;99.90;;;;;;5080841;28;20025;-85
2022/12/18 02:19:15;;;;;;;45.97;20.10;;;-7.20;99.90;;;;;;5080754;28;20051;-85
2022/12/18 02:22:13;;;;;;;45.10;19.73;;;-7.20;99.90;;;;;;5083885;28;20708;-84
2022/12/18 02:25:17;;;;;;;46.50;19.70;;;-7.30;99.90;;;;;;5038583;28;20486;-85
2022/12/18 02:27:47;;;;;;;51.97;21.63;;;-7.30;99.90;;;;;;5058299;28;20086;-85
2022/12/18 02:30:14;;;;;;;45.67;20.80;;;-7.30;99.90;;;;;;5087840;28;20489;-85
2022/12/18 02:32:43;;;;;;;43.73;19.47;;;-7.20;99.90;;;;;;5083339;28;20032;-85
2022/12/18 02:35:15;;;;;;;46.10;20.97;;;-7.20;99.90;;;;;;5079812;28;20040;-85
2022/12/18 02:37:44;;;;;;;42.97;19.63;;;-7.20;99.90;;;;;;5079449;28;20698;-85
2022/12/18 02:40:12;;;;;;;46.50;19.60;;;-7.30;99.90;;;;;;5083991;28;20732;-85
2022/12/18 02:42:38;;;;;;;51.20;20.33;;;-7.30;99.90;;;;;;5082813;28;20043;-84
2022/12/18 02:45:04;;;;;;;54.67;22.03;;;-7.30;99.90;;;;;;5078848;28;20040;-84
2022/12/18 02:47:33;;;;;;;49.50;21.30;;;-7.40;99.90;;;;;;5078172;28;20028;-84
2022/12/18 02:50:07;;;;;;;52.43;22.07;;;-7.40;99.90;;;;;;5078231;28;20608;-85
2022/12/18 02:52:36;;;;;;;49.77;22.13;;;-7.40;99.90;;;;;;5079326;28;20153;-84
2022/12/18 02:55:23;;;;;;;53.83;22.43;;;-7.40;99.90;;;;;;5079189;28;20115;-84
2022/12/18 02:57:58;;;;;;;51.53;21.43;;;-7.50;99.90;;;;;;5080359;28;20051;-84
2022/12/18 03:00:57;;;;;;;55.77;22.77;;;-7.50;99.90;;;;;;5082423;28;20058;-86
2022/12/18 03:03:57;;;;;;;48.43;21.87;;;-7.50;99.90;;;;;;5065097;28;20044;-83
2022/12/18 03:06:33;;;;;;;49.30;21.40;;;-7.50;99.90;;;;;;5079150;28;20488;-84
2022/12/18 03:09:05;;;;;;;52.83;22.53;;;-7.50;99.90;;;;;;5077989;28;20039;-84
2022/12/18 03:14:21;;;;;;;55.27;22.90;;;-7.60;99.90;;;;;;5082818;28;20035;-84
2022/12/18 03:16:51;;;;;;;55.37;23.13;;;-7.60;99.90;;;;;;5081942;28;20032;-84
2022/12/18 03:19:21;;;;;;;57.10;23.57;;;-7.60;99.90;;;;;;5080501;28;20032;-84
2022/12/18 03:21:51;;;;;;;52.93;22.83;;;-7.60;99.90;;;;;;5077137;28;20398;-84
2022/12/18 03:24:19;;;;;;;57.33;24.60;;;-7.60;99.90;;;;;;5080215;28;20043;-84
2022/12/18 03:26:47;;;;;;;53.30;22.87;;;-7.60;99.90;;;;;;5083505;28;20544;-84
2022/12/18 03:29:18;;;;;;;57.37;22.33;;;-7.70;99.90;;;;;;5081847;28;20062;-84
2022/12/18 03:31:55;;;;;;;58.43;23.30;;;-7.80;99.90;;;;;;5082288;28;20021;-82
2022/12/18 03:34:32;;;;;;;53.00;22.83;;;-7.90;99.90;;;;;;5076391;28;20574;-83
2022/12/18 03:36:58;;;;;;;54.83;22.27;;;-7.90;99.90;;;;;;5077455;28;20020;-83
2022/12/18 03:39:24;;;;;;;58.80;23.27;;;-7.90;99.90;;;;;;5078925;28;20055;-84
2022/12/18 03:42:05;;;;;;;53.40;22.77;;;-7.90;99.90;;;;;;5075979;28;20684;-84
2022/12/18 03:44:53;;;;;;;51.33;22.50;;;-7.90;99.90;;;;;;5080226;28;20787;-83
2022/12/18 03:47:27;;;;;;;52.07;21.03;;;-8.00;99.90;;;;;;5072069;28;20036;-83
2022/12/18 03:50:08;;;;;;;51.47;21.10;;;-8.00;99.90;;;;;;5083911;28;20425;-84
2022/12/18 03:53:11;;;;;;;52.07;21.57;;;-8.00;99.90;;;;;;5079614;28;20032;-84
2022/12/18 03:55:38;;;;;;;53.90;22.50;;;-8.00;99.90;;;;;;5079486;28;20114;-83
2022/12/18 03:58:07;;;;;;;48.97;21.20;;;-7.90;99.90;;;;;;5080985;28;20028;-83
2022/12/18 04:00:33;;;;;;;54.13;21.80;;;-8.00;99.90;;;;;;5082073;28;20103;-83
2022/12/18 04:03:01;;;;;;;47.07;20.50;;;-7.90;99.90;;;;;;5080241;28;20031;-83
2022/12/18 04:05:28;;;;;;;45.97;20.53;;;-7.90;99.90;;;;;;5076685;28;20025;-83
2022/12/18 04:07:56;;;;;;;50.07;20.63;;;-7.90;99.90;;;;;;5079713;28;20025;-83
2022/12/18 04:10:22;;;;;;;47.67;20.10;;;-7.90;99.90;;;;;;5073483;28;20058;-83
2022/12/18 04:12:47;;;;;;;51.00;21.60;;;-7.90;99.90;;;;;;5078502;28;20534;-83
2022/12/18 04:15:14;;;;;;;48.07;20.10;;;-7.90;99.90;;;;;;5074316;28;20457;-83
2022/12/18 04:17:47;;;;;;;44.40;18.90;;;-7.90;99.90;;;;;;5083714;28;20065;-83
2022/12/18 04:20:13;;;;;;;50.30;20.47;;;-8.00;99.90;;;;;;5083163;28;20035;-82
2022/12/18 04:22:38;;;;;;;47.47;20.67;;;-8.00;99.90;;;;;;5079911;28;20393;-82
2022/12/18 04:25:04;;;;;;;48.27;21.00;;;-8.10;99.90;;;;;;5076014;28;20112;-83
2022/12/18 04:27:30;;;;;;;48.97;20.53;;;-8.10;99.90;;;;;;5079056;28;20020;-82
2022/12/18 04:29:56;;;;;;;51.27;20.57;;;-8.20;99.90;;;;;;5080638;28;20035;-82
2022/12/18 04:32:21;;;;;;;47.10;20.47;;;-8.20;99.90;;;;;;5077847;28;20064;-82
2022/12/18 04:34:47;;;;;;;47.47;19.90;;;-8.20;99.90;;;;;;5075131;28;20046;-83
2022/12/18 04:37:13;;;;;;;45.30;19.63;;;-8.30;99.90;;;;;;5082209;28;20016;-83
2022/12/18 04:39:38;;;;;;;47.47;20.30;;;-8.30;99.90;;;;;;5085002;28;20024;-82
2022/12/18 04:42:04;;;;;;;46.70;19.63;;;-8.30;99.90;;;;;;5080470;28;20097;-82
2022/12/18 04:44:30;;;;;;;49.03;21.10;;;-8.30;99.90;;;;;;5073716;28;20481;-82
2022/12/18 04:46:55;;;;;;;45.97;19.20;;;-8.30;99.90;;;;;;5076186;28;20019;-83
2022/12/18 04:49:21;;;;;;;52.33;21.10;;;-8.30;99.90;;;;;;5082701;28;20240;-82
2022/12/18 04:51:47;;;;;;;49.97;20.10;;;-8.30;99.90;;;;;;5082911;28;20028;-82
2022/12/18 04:54:12;;;;;;;47.93;20.20;;;-8.30;99.90;;;;;;5077017;28;20032;-82
2022/12/18 04:56:38;;;;;;;42.73;19.07;;;-8.40;99.90;;;;;;5080951;28;20422;-83
2022/12/18 04:59:04;;;;;;;44.80;19.27;;;-8.40;99.90;;;;;;5080401;28;20032;-83
2022/12/18 05:01:30;;;;;;;46.27;19.70;;;-8.40;99.90;;;;;;5082444;28;20036;-83
2022/12/18 05:03:56;;;;;;;43.53;19.10;;;-8.50;99.90;;;;;;5079782;28;20050;-82
2022/12/18 05:06:21;;;;;;;42.53;19.13;;;-8.50;99.90;;;;;;5078335;28;20549;-83
2022/12/18 05:08:47;;;;;;;48.83;19.93;;;-8.50;99.90;;;;;;5081648;28;20036;-83
2022/12/18 05:11:15;;;;;;;46.77;19.13;;;-8.50;99.90;;;;;;5079292;28;20413;-83
2022/12/18 05:13:42;;;;;;;47.07;20.30;;;-8.50;99.90;;;;;;5076823;28;20058;-82
2022/12/18 05:16:08;;;;;;;49.70;20.50;;;-8.50;99.90;;;;;;5075620;28;20062;-82
2022/12/18 05:18:34;;;;;;;46.60;20.20;;;-8.40;99.90;;;;;;5072026;28;20055;-82
2022/12/18 05:21:00;;;;;;;43.37;18.97;;;-8.40;99.90;;;;;;5077426;28;20043;-83
2022/12/18 05:23:26;;;;;;;45.57;19.03;;;-8.50;99.90;;;;;;5074458;28;20028;-83
2022/12/18 05:25:57;;;;;;;43.13;18.60;;;-8.50;99.90;;;;;;5082259;28;20051;-82
2022/12/18 05:28:25;;;;;;;46.90;20.23;;;-8.50;99.90;;;;;;5073771;28;20024;-82
2022/12/18 05:30:52;;;;;;;43.93;18.83;;;-8.50;99.90;;;;;;5082342;28;20039;-83
2022/12/18 05:33:19;;;;;;;47.23;19.20;;;-8.40;99.90;;;;;;5082779;28;20090;-83
2022/12/18 05:35:52;;;;;;;49.57;19.93;;;-8.50;99.90;;;;;;5078162;28;20052;-83
2022/12/18 05:38:20;;;;;;;50.47;20.63;;;-8.40;99.90;;;;;;5079573;28;20114;-83
2022/12/18 05:40:46;;;;;;;51.87;20.87;;;-8.50;99.90;;;;;;5078279;28;20901;-82
2022/12/18 05:43:12;;;;;;;48.20;19.87;;;-8.50;99.90;;;;;;5084288;28;20028;-83
2022/12/18 05:45:38;;;;;;;51.07;20.47;;;-8.60;99.90;;;;;;5085610;28;20089;-82
2022/12/18 05:48:05;;;;;;;51.47;19.90;;;-8.60;99.90;;;;;;5077140;28;20051;-82
2022/12/18 05:50:30;;;;;;;45.17;19.50;;;-8.70;99.90;;;;;;5077161;28;20181;-82
2022/12/18 05:52:56;;;;;;;49.03;20.80;;;-8.70;99.90;;;;;;5074614;28;20455;-81
2022/12/18 05:55:21;;;;;;;53.70;22.90;;;-8.80;99.90;;;;;;5082771;28;20036;-82
2022/12/18 05:57:47;;;;;;;54.63;21.93;;;-8.90;99.90;;;;;;5084161;28;20024;-82
2022/12/18 06:00:13;;;;;;;52.33;21.33;;;-8.90;99.90;;;;;;5081435;28;20135;-81
2022/12/18 06:02:39;;;;;;;50.40;20.53;;;-8.90;99.90;;;;;;5083591;28;20020;-82
2022/12/18 06:05:05;;;;;;;51.93;21.43;;;-9.00;99.90;;;;;;5080973;28;20064;-82
2022/12/18 06:07:31;;;;;;;48.20;19.77;;;-9.00;99.90;;;;;;5077580;28;20035;-82
2022/12/18 06:09:56;;;;;;;51.60;20.40;;;-9.10;99.90;;;;;;5079278;28;20397;-82
2022/12/18 06:12:22;;;;;;;46.73;20.00;;;-9.10;99.90;;;;;;5081679;28;20536;-82
2022/12/18 06:14:47;;;;;;;46.87;20.10;;;-9.10;99.90;;;;;;5086150;28;20111;-81
2022/12/18 06:17:13;;;;;;;50.23;20.80;;;-9.10;99.90;;;;;;5085258;28;20035;-81
2022/12/18 06:19:39;;;;;;;50.80;20.27;;;-9.10;99.90;;;;;;5083069;28;20082;-81
2022/12/18 06:22:04;;;;;;;47.23;19.53;;;-9.10;99.90;;;;;;5081582;28;20115;-81
2022/12/18 06:24:30;;;;;;;51.13;20.90;;;-9.10;99.90;;;;;;5081120;28;20085;-81
2022/12/18 06:26:56;;;;;;;51.80;21.37;;;-9.10;99.90;;;;;;5083125;28;20030;-81
2022/12/18 06:29:21;;;;;;;53.07;22.13;;;-9.10;99.90;;;;;;5081208;28;20111;-81
2022/12/18 06:31:47;;;;;;;46.73;20.03;;;-9.00;99.90;;;;;;5078927;28;20800;-81
2022/12/18 06:34:12;;;;;;;46.80;19.47;;;-9.00;99.90;;;;;;5082835;28;20024;-81
2022/12/18 06:36:38;;;;;;;46.70;19.10;;;-9.00;99.90;;;;;;5077092;28;20973;-81
2022/12/18 06:39:04;;;;;;;49.83;19.67;;;-9.00;99.90;;;;;;5085257;28;20036;-81
2022/12/18 06:41:29;;;;;;;45.00;19.27;;;-9.10;99.90;;;;;;5080031;28;20059;-81
2022/12/18 06:43:55;;;;;;;48.83;19.53;;;-9.10;99.90;;;;;;5079077;28;20028;-81
2022/12/18 06:46:21;;;;;;;45.67;19.77;;;-9.10;99.90;;;;;;5080493;28;20149;-81
2022/12/18 06:48:48;;;;;;;49.20;20.07;;;-9.20;99.90;;;;;;5077380;28;20031;-81
2022/12/18 06:51:20;;;;;;;45.97;19.97;;;-9.20;99.90;;;;;;5086595;28;20019;-81
2022/12/18 06:53:46;;;;;;;47.77;20.47;;;-9.20;99.90;;;;;;5078643;28;20490;-81
2022/12/18 06:56:11;;;;;;;49.23;20.57;;;-9.20;99.90;;;;;;5078160;28;20044;-81
2022/12/18 06:58:39;;;;;;;43.13;20.37;;;-9.20;99.90;;;;;;5075237;28;20131;-81
2022/12/18 07:01:06;;;;;;;48.87;20.40;;;-9.20;99.90;;;;;;5076511;28;20092;-81
2022/12/18 07:03:32;;;;;;;48.23;20.90;;;-9.30;99.90;;;;;;5077348;28;20074;-81
2022/12/18 07:05:57;;;;;;;49.50;21.30;;;-9.30;99.90;;;;;;5080739;28;20477;-81
2022/12/18 07:08:23;;;;;;;50.33;20.60;;;-9.30;99.90;;;;;;5081158;28;20735;-80
2022/12/18 07:10:49;;;;;;;46.53;19.47;;;-9.40;99.90;;;;;;5078295;28;20640;-81
2022/12/18 07:13:16;;;;;;;45.97;19.20;;;-9.40;99.90;;;;;;5073556;28;20052;-82
2022/12/18 07:15:42;;;;;;;48.83;19.90;;;-9.40;99.90;;;;;;5078793;28;20024;-82
2022/12/18 07:18:07;;;;;;;51.43;21.67;;;-9.40;99.90;;;;;;5077103;28;20032;-82
2022/12/18 07:20:33;;;;;;;47.40;19.63;;;-9.40;99.90;;;;;;5066369;28;20035;-81
2022/12/18 07:22:58;;;;;;;51.30;20.17;;;-9.40;99.90;;;;;;5064584;28;20169;-81
2022/12/18 07:25:24;;;;;;;48.03;19.80;;;-9.40;99.90;;;;;;5060488;28;20607;-83
2022/12/18 07:27:50;;;;;;;49.77;20.73;;;-9.30;99.90;;;;;;5069031;28;20024;-84
2022/12/18 07:30:15;;;;;;;45.00;19.07;;;-9.30;99.90;;;;;;5067544;28;20493;-83
2022/12/18 07:32:41;;;;;;;47.13;18.17;;;-9.20;99.90;;;;;;5067294;28;20755;-83
2022/12/18 07:35:06;;;;;;;54.40;21.67;;;-9.20;99.90;;;;;;5067869;28;20438;-83
2022/12/18 07:37:32;;;;;;;52.27;20.47;;;-9.10;99.90;;;;;;5066314;28;20024;-82
2022/12/18 07:39:58;;;;;;;49.53;19.00;;;-9.10;99.90;;;;;;5070559;28;20544;-83
2022/12/18 07:42:32;;;;;;;51.33;19.17;;;-9.10;99.90;;;;;;5063429;28;20034;-82
2022/12/18 07:45:02;;;;;;;49.30;20.30;;;-9.10;99.90;;;;;;5065108;28;20122;-81
2022/12/18 07:47:31;;;;;;;47.80;19.43;;;-9.00;99.90;;;;;;5066600;28;20024;-79
2022/12/18 07:49:57;;;;;;;50.73;21.53;;;-9.00;99.90;;;;;;4361354;28;10000983;-79
2022/12/18 07:52:22;;;;;;;71.23;27.13;;;-9.00;99.90;;;;;;5059711;28;22412;-81
2022/12/18 07:54:49;;;;;;;64.83;25.77;;;-9.00;99.90;;;;;;5059276;28;20029;-80
2022/12/18 07:57:16;;;;;;;63.20;23.33;;;-8.90;99.90;;;;;;5055559;28;21291;-79
2022/12/18 07:59:42;;;;;;;61.07;22.70;;;-8.90;99.90;;;;;;5062326;28;20060;-80
2022/12/18 08:02:07;;;;;;;56.87;22.03;;;-8.90;99.90;;;;;;5058272;28;20119;-78
2022/12/18 08:04:33;;;;;;;53.77;21.83;;;-8.90;99.90;;;;;;5057882;28;20068;-86
2022/12/18 08:06:59;;;;;;;53.00;21.27;;;-8.90;99.90;;;;;;5063961;28;20493;-86
2022/12/18 08:09:25;;;;;;;51.83;21.20;;;-8.90;99.90;;;;;;5055399;28;20024;-82
2022/12/18 08:11:51;;;;;;;55.67;22.30;;;-8.80;99.90;;;;;;5056575;28;20039;-79
2022/12/18 08:14:16;;;;;;;54.17;22.13;;;-8.80;99.90;;;;;;5054859;28;20039;-81
2022/12/18 08:16:42;;;;;;;65.67;25.97;;;-8.70;99.90;;;;;;5057887;28;20601;-86
2022/12/18 08:19:11;;;;;;;57.63;23.53;;;-8.60;99.90;;;;;;5058005;28;20121;-81
2022/12/18 08:21:37;;;;;;;60.07;23.23;;;-8.60;99.90;;;;;;5063580;28;20075;-81
2022/12/18 08:24:03;;;;;;;57.03;23.90;;;-8.60;99.90;;;;;;5043918;28;20110;-81
2022/12/18 08:26:30;;;;;;;58.13;23.33;;;-8.60;99.90;;;;;;5063570;28;20031;-78
2022/12/18 08:28:57;;;;;;;54.23;23.37;;;-8.60;99.90;;;;;;5062074;28;20035;-81
2022/12/18 08:31:24;;;;;;;54.07;22.17;;;-8.60;99.90;;;;;;5062990;28;20600;-81
2022/12/18 08:33:52;;;;;;;56.40;22.60;;;-8.50;99.90;;;;;;5061934;28;20036;-86
2022/12/18 08:36:18;;;;;;;61.47;23.90;;;-8.50;99.90;;;;;;5061860;28;20036;-85
2022/12/18 08:38:43;;;;;;;55.23;21.63;;;-8.60;99.90;;;;;;5061620;28;20031;-81
2022/12/18 08:41:11;;;;;;;62.53;24.70;;;-8.50;99.90;;;;;;5062277;28;20067;-80
2022/12/18 08:46:22;;;;;;;60.67;23.83;;;-8.50;99.90;;;;;;5064577;28;20517;-79
2022/12/18 08:48:49;;;;;;;60.67;23.90;;;-8.50;99.90;;;;;;5062494;28;20070;-79
2022/12/18 08:51:17;;;;;;;64.83;26.73;;;-8.40;99.90;;;;;;5065784;28;20036;-79
2022/12/18 08:53:43;;;;;;;64.00;27.17;;;-8.30;99.90;;;;;;5063760;28;20070;-79
2022/12/18 08:56:08;;;;;;;59.70;23.70;;;-8.10;99.90;;;;;;5066071;28;20039;-79
2022/12/18 08:58:34;;;;;;;60.50;24.53;;;-8.00;99.90;;;;;;5067598;28;20047;-79
2022/12/18 09:01:01;;;;;;;64.23;25.43;;;-7.90;99.90;;;;;;5067156;28;20031;-79
2022/12/18 09:03:27;;;;;;;65.60;25.70;;;-7.80;99.90;;;;;;5066141;28;20067;-78
2022/12/18 09:05:53;;;;;;;67.10;28.30;;;-7.70;99.90;;;;;;5062690;28;20123;-78
2022/12/18 09:08:19;;;;;;;64.17;27.37;;;-7.60;99.90;;;;;;5067995;28;20034;-78
2022/12/18 09:10:45;;;;;;;70.63;27.57;;;-7.60;99.90;;;;;;5067008;28;20406;-78
2022/12/18 09:13:12;;;;;;;61.30;25.37;;;-7.50;99.90;;;;;;5065251;28;20047;-78
2022/12/18 09:15:46;;;;;;;63.60;27.03;;;-7.40;99.90;;;;;;5065350;28;20020;-78
2022/12/18 09:18:13;;;;;;;64.57;25.53;;;-7.40;99.90;;;;;;5069721;28;20039;-78
2022/12/18 09:20:39;;;;;;;63.30;26.63;;;-7.40;99.90;;;;;;5071113;28;20395;-78
2022/12/18 09:23:05;;;;;;;65.83;26.87;;;-7.40;99.90;;;;;;5069590;28;20036;-78
2022/12/18 09:25:33;;;;;;;61.13;26.40;;;-7.40;99.90;;;;;;5068093;28;20028;-78
2022/12/18 09:28:19;;;;;;;61.87;26.37;;;-7.30;99.90;;;;;;5071760;28;20049;-78
2022/12/18 09:30:48;;;;;;;60.37;24.93;;;-7.20;99.90;;;;;;5071271;28;20113;-78
2022/12/18 09:33:15;;;;;;;58.77;24.97;;;-7.10;99.90;;;;;;5068345;28;20111;-78
2022/12/18 09:35:43;;;;;;;63.53;25.37;;;-7.00;99.90;;;;;;5070236;28;20327;-79
2022/12/18 09:38:11;;;;;;;59.30;25.57;;;-6.90;99.90;;;;;;5071715;28;20040;-81
2022/12/18 09:40:47;;;;;;;59.57;24.80;;;-6.90;99.90;;;;;;5071693;28;20068;-79
2022/12/18 09:43:18;;;;;;;56.10;23.10;;;-6.90;99.90;;;;;;5068199;28;20039;-78
2022/12/18 09:45:54;;;;;;;51.13;22.73;;;-6.70;99.90;;;;;;5068191;28;20046;-79
2022/12/18 09:48:31;;;;;;;49.30;21.93;;;-6.70;99.90;;;;;;5070970;28;20054;-79
2022/12/18 09:51:11;;;;;;;61.13;25.03;;;-6.50;99.90;;;;;;5071546;28;20036;-79
2022/12/18 09:53:40;;;;;;;58.90;25.03;;;-6.30;99.90;;;;;;5069269;28;20032;-78
2022/12/18 09:56:07;;;;;;;52.13;23.93;;;-6.20;99.90;;;;;;5070911;28;20031;-81
2022/12/18 09:58:45;;;;;;;58.23;25.07;;;-6.00;99.90;;;;;;5071000;28;20031;-79
2022/12/18 10:01:22;;;;;;;65.50;26.93;;;-5.90;99.90;;;;;;5071308;28;20417;-79
2022/12/18 10:03:48;;;;;;;50.13;23.63;;;-5.80;99.90;;;;;;5068903;28;20050;-79
2022/12/18 10:06:18;;;;;;;51.20;22.53;;;-5.80;99.90;;;;;;5071204;28;20036;-79
2022/12/18 10:09:12;;;;;;;51.43;22.43;;;-5.70;99.90;;;;;;5071223;28;20051;-79
2022/12/18 10:11:58;;;;;;;49.67;22.23;;;-5.70;99.90;;;;;;5067236;28;20074;-79
2022/12/18 10:14:42;;;;;;;55.00;24.33;;;-5.60;99.90;;;;;;5068182;28;20039;-78
2022/12/18 10:17:26;;;;;;;64.87;26.70;;;-5.60;99.90;;;;;;5070238;28;20035;-79
2022/12/18 10:20:03;;;;;;;57.47;24.77;;;-5.60;99.90;;;;;;5070406;28;20210;-79
2022/12/18 10:23:02;;;;;;;56.43;23.97;;;-5.60;99.90;;;;;;5067505;28;20141;-79
2022/12/18 10:26:00;;;;;;;50.13;22.00;;;-5.50;99.90;;;;;;5068437;28;20036;-79
2022/12/18 10:28:27;;;;;;;50.77;22.17;;;-5.50;99.90;;;;;;5069135;28;20036;-79
2022/12/18 10:30:52;;;;;;;53.63;23.63;;;-5.50;99.90;;;;;;5069052;28;20032;-80
2022/12/18 10:33:22;;;;;;;49.63;22.43;;;-5.50;99.90;;;;;;5069108;28;20093;-80
2022/12/18 10:35:50;;;;;;;45.73;21.47;;;-5.50;99.90;;;;;;5069257;28;20028;-80
2022/12/18 10:38:16;;;;;;;48.10;23.00;;;-5.50;99.90;;;;;;5069673;28;20094;-79
2022/12/18 10:41:01;;;;;;;48.83;23.03;;;-5.50;99.90;;;;;;5070308;28;20036;-79
2022/12/18 10:43:31;;;;;;;48.67;22.07;;;-5.50;99.90;;;;;;5068494;28;20040;-79
2022/12/18 10:46:00;;;;;;;46.47;21.23;;;-5.50;99.90;;;;;;5068978;28;20426;-79
2022/12/18 10:48:27;;;;;;;46.47;21.50;;;-5.60;99.90;;;;;;5069285;28;20405;-79
2022/12/18 10:50:53;;;;;;;45.90;21.47;;;-5.60;99.90;;;;;;5069556;28;20066;-80
2022/12/18 10:53:22;;;;;;;42.83;20.97;;;-5.50;99.90;;;;;;5066969;28;20363;-80
2022/12/18 10:55:49;;;;;;;47.47;21.13;;;-5.50;99.90;;;;;;5069475;28;20028;-80
2022/12/18 10:58:37;;;;;;;44.83;21.43;;;-5.40;99.90;;;;;;5068796;28;20111;-79
2022/12/18 11:01:07;;;;;;;41.75;20.65;;;-5.40;99.90;;;;;;5068773;28;20162;-79
2022/12/18 11:03:57;;;;;;;46.13;20.73;;;-5.30;99.90;;;;;;5067971;28;20109;-79
2022/12/18 11:06:24;;;;;;;51.70;21.17;;;-5.20;99.90;;;;;;5068187;28;20042;-79
2022/12/18 11:09:22;;;;;;;46.75;22.33;;;-5.20;99.90;;;;;;5068761;28;20028;-79
2022/12/18 11:11:53;;;;;;;54.80;23.90;;;-5.20;99.90;;;;;;5063476;28;20040;-70
2022/12/18 11:14:34;;;;;;;56.13;23.63;;;-5.20;99.90;;;;;;5064364;28;20110;-69
2022/12/18 11:17:00;;;;;;;54.08;25.10;;;-5.20;99.90;;;;;;5058960;28;20031;-69
2022/12/18 11:19:36;;;;;;;52.03;23.52;;;-5.10;99.90;;;;;;5062329;28;20078;-70
2022/12/18 11:22:26;;;;;;;51.92;23.98;;;-5.10;99.90;;;;;;5062816;28;20036;-70
2022/12/18 11:24:57;;;;;;;47.78;21.83;;;-5.10;99.90;;;;;;5060600;28;20032;-70
2022/12/18 11:27:24;;;;;;;50.97;22.50;;;-5.10;99.90;;;;;;5065578;28;20506;-70
2022/12/18 11:29:52;;;;;;;52.55;23.38;;;-5.00;99.90;;;;;;5062895;28;20031;-70
2022/12/18 11:32:40;;;;;;;43.33;20.95;;;-4.90;99.90;;;;;;5068085;28;20284;-70
2022/12/18 11:35:21;;;;;;;42.72;19.55;;;-4.90;99.90;;;;;;5065888;28;20567;-70
2022/12/18 11:37:57;;;;;;;44.20;21.27;;;-4.80;99.90;;;;;;5067996;28;20071;-70
2022/12/18 11:40:33;;;;;;;39.28;19.20;;;-4.80;99.90;;;;;;5066972;28;20122;-70
2022/12/18 11:43:07;;;;;;;47.85;20.27;;;-4.70;99.90;;;;;;5064127;28;20036;-70
2022/12/18 11:45:38;;;;;;;40.20;20.10;;;-4.60;99.90;;;;;;5067834;28;20051;-70
2022/12/18 11:48:27;;;;;;;41.60;19.80;;;-4.40;99.90;;;;;;5068091;28;20028;-71
2022/12/18 11:50:58;;;;;;;46.40;20.67;;;-4.30;99.90;;;;;;5065928;28;20055;-70
2022/12/18 11:53:26;;;;;;;47.67;20.45;;;-4.30;99.90;;;;;;5063842;28;20112;-71
2022/12/18 11:56:03;;;;;;;42.08;20.15;;;-4.20;99.90;;;;;;5064115;28;20032;-70
2022/12/18 11:58:47;;;;;;;45.90;20.65;;;-4.10;99.90;;;;;;5064342;28;20055;-71
2022/12/18 12:01:28;;;;;;;40.60;19.13;;;-4.00;99.90;;;;;;5068234;28;20115;-70
2022/12/18 12:04:31;;;;;;;40.05;18.13;;;-3.90;99.90;;;;;;5063083;28;20047;-70
2022/12/18 12:07:18;;;;;;;42.25;19.70;;;-3.80;99.90;;;;;;5065933;28;20064;-70
2022/12/18 12:10:02;;;;;;;37.05;19.42;;;-3.80;99.90;;;;;;5070103;28;20052;-70
2022/12/18 12:12:45;;;;;;;40.53;19.67;;;-3.80;99.90;;;;;;5064558;28;20054;-70
2022/12/18 12:15:31;;;;;;;;;;;-3.70;99.90;;;;;;5068904;28;20031;-70
2022/12/18 12:18:29;;;;;;;49.55;22.40;;;-3.70;99.90;;;;;;5065729;28;19912;-70
2022/12/18 12:21:10;;;;;;;42.75;20.83;;;-3.70;99.90;;;;;;5069020;28;20349;-70
2022/12/18 12:23:41;;;;;;;38.88;19.75;;;-3.70;99.90;;;;;;5066002;28;20647;-70
2022/12/18 12:26:42;;;;;;;39.83;20.13;;;-3.70;99.90;;;;;;5067797;28;20460;-71
2022/12/18 12:29:28;;;;;;;42.63;20.38;;;-3.60;99.90;;;;;;5057066;28;20035;-70
2022/12/18 12:32:00;;;;;;;41.28;20.23;;;-3.60;99.90;;;;;;5066815;28;21374;-71
2022/12/18 12:35:06;;;;;;;50.08;22.42;;;-3.50;99.90;;;;;;5067847;28;20020;-70
2022/12/18 12:38:06;;;;;;;43.65;21.23;;;-3.40;99.90;;;;;;5067918;28;20051;-70
2022/12/18 12:40:35;;;;;;;43.97;20.92;;;-3.40;99.90;;;;;;5067321;28;20029;-70
2022/12/18 12:43:29;;;;;;;44.25;21.27;;;-3.40;99.90;;;;;;5064925;28;20734;-70
2022/12/18 12:46:05;;;;;;;44.85;20.80;;;-3.40;99.90;;;;;;5066708;28;20032;-70
2022/12/18 12:48:40;;;;;;;46.58;22.88;;;-3.40;99.90;;;;;;5069391;28;20089;-71
2022/12/18 12:51:32;;;;;;;45.08;21.50;;;-3.40;99.90;;;;;;5068675;28;20077;-70
2022/12/18 12:54:00;;;;;;;45.83;22.95;;;-3.40;99.90;;;;;;5065163;28;20028;-70